Portada
METAR-TAF:

METAR-TAF

Aeropuertos :

Vamdrup

Kolding, Dinamarca

latitud: 55-26N, longitud: 009-20E, altitud: 44 m

Observación

El informe se hizo hace 17 minutos, a las 00:20 UTC
Viento 5 kt del sur
Temperatura 9°C
Humedad 93%
Presión 1000 hPa

METAR: EKVD 070020Z AUTO 18005KT //// ///////// 09/08 Q1000

Hora: 02:37 (00:37 UTC)

Pronóstico

El informe se hizo hace 15 horas y 45 minutos, a las 08:52 UTC
Pronóstico válido del 06 a las 09 UTC al 06 a las 15 UTC
Viento 12 kt del oeste-suroeste
Visibilidad 10 km o más
Nubes dispersas a una altura de 3000 ft
Temporalmente
del 06 a las 09 UTC al 06 a las 15 UTC
Viento 15 kt del oeste-suroeste con ráfagas de 28 kt
Nubes dispersas a una altura de 3000 ft, Cumulonimbus.
chaparrones de lluvia

TAF: EKVD 060852Z 0609/0615 24012KT 9999 SCT030 TEMPO 0609/0615 24015G28KT SHRA SCT030CB

Observaciones y pronósticos meteorológicos de más de 4000 aeropuertos (mensajes METAR y TAF).

Los puntos amarillos y rojos representan las estaciones disponibles.

Ponga el ratón en el punto deseado para ver el nombre de la estación.

Haga clic para ver las observaciones y los pronósticos meteorológicos.

Para cambiar el mapa : haga clic en los botones verdes con una cruz de color negro para hacer un zoom, en el botón verde con un guión para alejar o en las flechas verdes para mapas adyacentes.


METAR-TAF: